Flight Track Log - Related Links

Times and Time Zones

All times are in EDT time to prevent confusion due to time zone crossing. See the CSC8973 flight status page for this flight to view local times or setup timezone preferences in your user account.

Time Position Orientation Groundspeed Altitude Reporting Facility
EDT Latitude Longitude Course Direction KTS MPH feet Rate Location/Type
Wed 02:57:00 AM 29.7890 107.0993 80° East  Level Estimated
Wed 02:58:00 AM 29.8061 107.2140 80° East  Level Estimated
Wed 02:59:00 AM 29.8232 107.3287 80° East  Level Estimated
Wed 03:00:00 AM 29.8401 107.4435 80° East  Level Estimated
Wed 03:01:00 AM 29.8570 107.5583 80° East  Level Estimated
Wed 03:02:00 AM 29.8738 107.6731 80° East  Level Estimated
Wed 03:03:00 AM 29.8904 107.7880 80° East  Level Estimated
Wed 03:04:00 AM 29.9070 107.9029 81° East  Level Estimated
Wed 03:05:00 AM 29.9234 108.0178 81° East  Level Estimated
Wed 03:06:00 AM 29.9398 108.1328 81° East  Level Estimated
Wed 03:07:00 AM 29.9560 108.2478 81° East  Level Estimated
Wed 03:08:00 AM 29.9722 108.3629 81° East  Level Estimated
Wed 03:09:00 AM 29.9910 108.4977 81° East  Level Estimated
Wed 03:10:00 AM 30.0097 108.6325 81° East  Level Estimated
Wed 03:11:00 AM 30.0282 108.7674 81° East  Level Estimated
Wed 03:12:00 AM 30.0466 108.9024 81° East  Level Estimated
Wed 03:13:00 AM 30.0648 109.0374 81° East  Level Estimated
Wed 03:14:00 AM 30.0829 109.1724 81° East  Level Estimated
Wed 03:15:00 AM 30.1009 109.3075 81° East  Level Estimated
Wed 03:16:00 AM 30.1187 109.4427 81° East  Level Estimated
Wed 03:17:00 AM 30.1364 109.5779 81° East  Level Estimated
Wed 03:18:00 AM 30.1540 109.7131 81° East  Level Estimated
Wed 03:19:00 AM 30.1714 109.8484 81° East  Level Estimated
Wed 03:20:00 AM 30.1887 109.9838 82° East  Level Estimated
Wed 03:21:00 AM 30.2058 110.1192 82° East  Level Estimated
Wed 03:22:00 AM 30.2228 110.2546 82° East  Level Estimated
Wed 03:23:00 AM 30.2397 110.3901 82° East  Level Estimated
Wed 03:24:00 AM 30.2564 110.5256 82° East  Level Estimated
Wed 03:25:00 AM 30.2730 110.6612 82° East  Level Estimated
Wed 03:26:00 AM 30.2894 110.7968 82° East  Level Estimated
Wed 03:27:00 AM 30.3057 110.9325 82° East  Level Estimated
Wed 03:28:00 AM 30.3219 111.0682 82° East  Level Estimated
Wed 03:29:00 AM 30.3379 111.2039 82° East  Level Estimated
Wed 03:30:00 AM 30.3538 111.3398 82° East  Level Estimated
Wed 03:31:00 AM 30.3695 111.4756 82° East  Level Estimated
Wed 03:32:00 AM 30.3851 111.6115 82° East  Level Estimated
Wed 03:33:00 AM 30.4006 111.7474 82° East  Level Estimated
Wed 03:34:00 AM 30.4159 111.8834 83° East  Level Estimated
Wed 03:35:00 AM 30.4311 112.0194 83° East  Level Estimated
Wed 03:36:00 AM 30.4461 112.1555 83° East  Level Estimated
Wed 03:37:00 AM 30.4610 112.2916 83° East  Level Estimated
Wed 03:38:00 AM 30.4758 112.4277 83° East  Level Estimated
Wed 03:39:00 AM 30.4904 112.5639 83° East  Level Estimated
Wed 03:40:00 AM 30.5049 112.7001 83° East  Level Estimated
Wed 03:41:00 AM 30.5192 112.8364 83° East  Level Estimated
Wed 03:42:00 AM 30.5334 112.9727 83° East  Level Estimated
Wed 03:43:00 AM 30.5474 113.1090 83° East  Level Estimated
Wed 03:44:00 AM 30.5613 113.2454 83° East  Level Estimated
Wed 03:45:00 AM 30.5751 113.3818 83° East  Level Estimated
Wed 03:46:00 AM 30.5887 113.5183 83° East  Level Estimated
Wed 03:47:00 AM 30.6022 113.6548 83° East  Level Estimated
Wed 03:48:00 AM 30.6155 113.7913 83° East  Level Estimated
Wed 03:49:00 AM 30.6287 113.9279 84° East  Level Estimated
Wed 03:50:00 AM 30.6418 114.0645 84° East  Level Estimated
Wed 03:51:00 AM 30.6547 114.2012 84° East  Level Estimated
Wed 03:52:00 AM 30.6674 114.3379 84° East  Level Estimated
Wed 03:53:00 AM 30.6801 114.4746 84° East  Level Estimated
Wed 03:54:00 AM 30.6925 114.6113 84° East  Level Estimated
Wed 03:55:00 AM 30.7049 114.7481 84° East  Level Estimated
Wed 03:56:00 AM 30.7171 114.8849 84° East  Level Estimated
Wed 03:57:00 AM 30.7291 115.0218 84° East  Level Estimated
Wed 03:58:00 AM 30.7410 115.1587 84° East  Level Estimated
Wed 03:59:00 AM 30.7528 115.2956 84° East  Level Estimated
Wed 04:00:00 AM 30.7644 115.4326 84° East  Level Estimated
Wed 04:01:00 AM 30.7759 115.5696 84° East  Level Estimated
Wed 04:02:00 AM 30.7872 115.7066 84° East  Level Estimated
Wed 04:03:00 AM 30.7984 115.8437 85° East  Level Estimated
Wed 04:04:00 AM 30.8094 115.9808 85° East  Level Estimated
Wed 04:05:00 AM 30.8203 116.1179 85° East  Level Estimated
Wed 04:06:00 AM 30.8311 116.2550 85° East  Level Estimated
Wed 04:07:00 AM 30.8417 116.3922 85° East  Level Estimated
Wed 04:08:00 AM 30.8521 116.5294 85° East  Level Estimated
Wed 04:09:00 AM 30.8624 116.6667 85° East  Level Estimated
Wed 04:10:00 AM 30.8726 116.8039 85° East  Level Estimated
Wed 04:11:00 AM 30.8827 116.9412 85° East  Level Estimated
Wed 04:12:00 AM 30.8925 117.0786 85° East  Level Estimated
Wed 04:13:00 AM 30.9023 117.2159 85° East  Level Estimated
Wed 04:14:00 AM 30.9119 117.3533 85° East  Level Estimated
Wed 04:15:00 AM 30.9213 117.4907 85° East  Level Estimated
Wed 04:16:00 AM 30.9306 117.6282 85° East  Level Estimated
Wed 04:17:00 AM 30.9398 117.7656 86° East  Level Estimated
Wed 04:18:00 AM 30.9488 117.9031 86° East  Level Estimated
Wed 04:19:00 AM 30.9576 118.0406 86° East  Level Estimated
Wed 04:20:00 AM 30.9664 118.1782 86° East  Level Estimated
Wed 04:21:00 AM 30.9749 118.3158 86° East  Level Estimated
Wed 04:22:00 AM 30.9834 118.4533 86° East  Level Estimated
Wed 04:23:00 AM 30.9916 118.5910 86° East  Level Estimated
Wed 04:23:33 AM 31.5595 120.4251 109° East 463 533 20,700  Level FlightAware ADS-B (ZSSS / SHA)
Wed 04:24:00 AM 30.9998 118.7286 86° East  Level Estimated
Wed 04:24:04 AM 31.5369 120.4999 109° East 462 532 20,700  Level FlightAware ADS-B (ZSSS / SHA)
Wed 04:24:34 AM 31.5158 120.5704 109° East 463 533 20,700  Level FlightAware ADS-B (ZSSS / SHA)
Wed 04:25:04 AM 31.4943 120.6420 109° East 463 533 20,700 -700 Level FlightAware ADS-B (ZSSS / SHA)
Wed 04:25:34 AM 31.4743 120.7087 109° East 459 528 20,000 -1,500 Descending FlightAware ADS-B (ZSSS / SHA)
Wed 04:26:04 AM 31.4528 120.7803 109° East 454 522 19,200 -1,629 Descending FlightAware ADS-B (ZSSS / SHA)
Wed 04:26:44 AM 31.4242 120.8749 109° East 444 511 18,100 -1,714 Descending FlightAware ADS-B (ZSSS / SHA)
Wed 04:27:14 AM 31.4047 120.9384 109° East 439 505 17,200 -1,960 Descending FlightAware ADS-B (ZSSS / SHA)
Wed 04:29:14 AM 31.2900 121.1729 138° Southeast 405 466 13,200 -2,000 Descending FlightAware ADS-B (ZSSS / SHA)
Wed 04:29:44 AM 31.2478 121.2161 138° Southeast 406 467 12,200 -1,600 Descending FlightAware ADS-B (ZSSS / SHA)
Wed 04:30:14 AM 31.2063 121.2582 138° Southeast 396 456 11,600 -1,000 Descending FlightAware ADS-B (ZSSS / SHA)
Wed 04:30:44 AM 31.1655 121.2997 139° Southeast 366 421 11,200 -800 Descending FlightAware ADS-B (ZSSS / SHA)
Wed 04:31:14 AM 31.1291 121.3378 133° Southeast 342 394 10,800 -750 Descending FlightAware ADS-B (ZSSS / SHA)
Wed 04:31:24 AM 31.1210 121.3516 119° Southeast 333 383 10,700 -600 Descending FlightAware ADS-B (ZSSS / SHA)
Wed 04:31:54 AM 31.1026 121.4008 113° Southeast 308 354 10,400 -873 Descending FlightAware ADS-B (ZSSS / SHA)
Wed 04:32:19 AM 31.0892 121.4375 112° Southeast 299 344 9,900 -1,350 Descending FlightAware ADS-B (ZSSS / SHA)
Wed 04:32:34 AM 31.0808 121.4604 112° Southeast 298 343 9,500 -1,636 Descending FlightAware ADS-B (ZSSS / SHA)
Wed 04:32:52 AM 31.0724 121.4836 112° Southeast 299 344 9,000 -1,688 Descending FlightAware ADS-B (ZSSS / SHA)
Wed 04:33:06 AM 31.0634 121.5081 112° Southeast 299 344 8,600 -1,688 Descending FlightAware ADS-B (ZSSS / SHA)
Wed 04:33:24 AM 31.0541 121.5338 112° Southeast 298 343 8,100 -1,636 Descending FlightAware ADS-B (ZSSS / SHA)
Wed 04:33:39 AM 31.0463 121.5551 112° Southeast 296 341 7,700 -1,400 Descending FlightAware ADS-B (ZSSS / SHA)
Wed 04:33:54 AM 31.0377 121.5788 112° Southeast 294 338 7,400 -1,400 Descending FlightAware ADS-B (ZSSS / SHA)
Wed 04:34:09 AM 31.0303 121.5991 112° Southeast 290 334 7,000 -1,600 Descending FlightAware ADS-B (ZSSS / SHA)
Wed 04:36:00 AM 31.1428 121.7924 56° Northeast  Level Estimated
Wed 04:37:00 AM 31.1428 121.7924 North  Level Estimated
Wed 04:38:00 AM 31.1428 121.7924 North  Level Estimated
Wed 04:39:00 AM 31.1428 121.7924 North  Level Estimated
Wed 04:40:00 AM 31.1428 121.7924 North  Level Estimated
Wed 04:41:00 AM 31.1428 121.7924 North  Level Estimated
Wed 04:42:00 AM 31.1428 121.7924 North  Level Estimated
Wed 04:43:00 AM 31.1428 121.7924 North  Level Estimated
Wed 04:44:00 AM 31.1428 121.7924 North  Level Estimated
Wed 04:45:00 AM 31.1428 121.7924 North  Level Estimated
Wed 04:46:00 AM 31.1428 121.7924 North  Level Estimated
Wed 04:47:00 AM 31.1428 121.7924 North  Level Estimated
Wed 04:48:00 AM 31.1428 121.7924 North  Level Estimated
Wed 04:49:00 AM 31.1428 121.7924 North  Level Estimated
Wed 04:50:00 AM 31.1428 121.7924 North  Level Estimated
Wed 04:51:00 AM 31.1428 121.7924 North  Level Estimated
Wed 04:52:00 AM 31.1428 121.7924 North  Level Estimated
Wed 04:53:00 AM 31.1428 121.7924 North  Level Estimated
Wed 04:54:00 AM 31.1428 121.7924 North  Level Estimated
Wed 04:55:00 AM 31.1428 121.7924 North  Level Estimated
Wed 04:56:00 AM 31.1428 121.7924 North  Level Estimated
Wed 04:57:00 AM 31.1428 121.7924 North  Level Estimated
Wed 04:58:00 AM 31.1428 121.7924 North  Level Estimated
Wed 04:59:00 AM 31.1428 121.7924 North  Level Estimated
Wed 05:00:00 AM 31.1428 121.7924 North  Level Estimated

Login

Don't have an account? Register now (free) for customized features, flight alerts, and more!